YGCR weather

Gloucester Airport
New South Wales, Australia

Public forecast

Using degrees Celsius for public forecast. Weather courtesy of forecast.io.

METAR (pilot weather report)

Closest report is Taree Airport, 28.7 nm (53.2 km) ENE. Retrieved 2019/04/26 10:00 UTC (5 minutes ago):

YTRE 261000Z AUTO 00000KT 9999 // NCD 19/16 Q1013

TAF (pilot weather forecast)

Closest forecast is Taree Airport, 28.7 nm (53.2 km) ENE. Retrieved 2019/04/26 08:03 UTC (2 hours ago):

TAF YTRE 260658Z 2608/2620 27010KT CAVOK FM261500 22010KT CAVOK FM261800 22010KT 9999 SCT025